Time;durP1;ratioP1;P1;durP2;ratioP2;P2;SDS_P1;SDS_P2;PMS_P1;PMS_P2;Temp;Humidity;BMP_temperature;BMP_pressure;BME280_temperature;BME280_humidity;BME280_pressure;Samples;Min_cycle;Max_cycle;Signal;HPM_P1;HPM_P2
2021/07/26 00:02:13;;;;;;;;;21.00;20.00;;;;;25.25;53.49;98402.41;6120904;28;96650;-63
2021/07/26 00:05:17;;;;;;;;;21.40;21.00;;;;;25.24;53.83;98392.50;6134562;28;96620;-63
2021/07/26 00:08:20;;;;;;;;;22.00;21.00;;;;;25.24;54.21;98393.31;6138375;28;97408;-63
2021/07/26 00:11:23;;;;;;;;;21.40;20.80;;;;;25.26;54.01;98404.84;6127944;28;97364;-64
2021/07/26 00:14:27;;;;;;;;;22.40;21.40;;;;;25.28;53.79;98415.53;6105500;28;96955;-62
2021/07/26 00:17:32;;;;;;;;;23.00;21.60;;;;;25.39;54.32;98411.28;6106399;28;97704;-64
2021/07/26 00:20:35;;;;;;;;;24.00;23.40;;;;;25.44;54.45;98398.09;6126684;28;97194;-64
2021/07/26 00:23:38;;;;;;;;;24.50;22.25;;;;;25.47;54.83;98377.31;6132928;28;97599;-63
2021/07/26 00:26:41;;;;;;;;;23.00;22.40;;;;;25.40;55.07;98371.50;6137234;28;97429;-64
2021/07/26 00:29:45;;;;;;;;;22.00;21.00;;;;;25.33;55.39;98373.97;6137341;28;97068;-64
2021/07/26 00:32:49;;;;;;;;;25.00;23.00;;;;;25.37;55.34;98352.84;6126746;28;96675;-63
2021/07/26 00:35:55;;;;;;;;;22.00;21.40;;;;;25.29;55.72;98348.97;6133081;28;97458;-63
2021/07/26 00:38:59;;;;;;;;;25.00;22.00;;;;;25.18;55.92;98375.31;6137674;28;96565;-63
2021/07/26 00:42:03;;;;;;;;;23.00;21.00;;;;;25.14;55.89;98368.84;6136626;28;96958;-63
2021/07/26 00:45:07;;;;;;;;;22.80;21.00;;;;;25.11;56.11;98374.22;6123560;28;97416;-64
2021/07/26 00:48:12;;;;;;;;;22.60;21.00;;;;;25.04;56.50;98366.44;6129600;28;96858;-64
2021/07/26 00:51:16;;;;;;;;;22.80;21.40;;;;;24.95;56.85;98369.22;6125324;28;97322;-64
2021/07/26 00:54:21;;;;;;;;;26.00;25.00;;;;;24.87;57.16;98400.38;6117570;28;97233;-63
2021/07/26 00:57:26;;;;;;;;;23.00;22.00;;;;;24.73;57.37;98438.28;6115453;28;98091;-64
2021/07/26 01:00:29;;;;;;;;;26.00;24.00;;;;;24.71;57.40;98435.06;6127050;28;96956;-64
2021/07/26 01:03:34;;;;;;;;;25.50;24.00;;;;;24.60;58.12;98433.75;6110392;28;97029;-64
2021/07/26 01:06:39;;;;;;;;;24.25;22.25;;;;;24.48;58.53;98434.41;6123151;28;98665;-63
2021/07/26 01:09:42;;;;;;;;;23.20;21.20;;;;;24.45;58.96;98431.47;6140650;28;96644;-64
2021/07/26 01:12:46;;;;;;;;;23.40;21.80;;;;;24.20;59.89;98415.72;6139720;28;97620;-64
2021/07/26 01:15:49;;;;;;;;;18.50;18.50;;;;;24.25;59.81;98423.84;6139592;28;97463;-63
2021/07/26 01:18:54;;;;;;;;;16.50;16.00;;;;;24.21;60.36;98409.91;6140749;28;97576;-64
2021/07/26 01:21:59;;;;;;;;;17.00;15.00;;;;;24.08;60.48;98397.88;6131046;28;96735;-64
2021/07/26 01:25:02;;;;;;;;;15.00;14.00;;;;;24.05;60.19;98375.66;6141562;28;97583;-64
2021/07/26 01:28:05;;;;;;;;;16.40;14.60;;;;;24.10;60.10;98342.47;6123070;28;97268;-63
2021/07/26 01:31:10;;;;;;;;;18.75;17.00;;;;;24.16;60.09;98330.16;6141318;28;96597;-64
2021/07/26 01:34:13;;;;;;;;;16.50;15.50;;;;;24.29;60.20;98326.47;6130404;28;96590;-64
2021/07/26 01:37:18;;;;;;;;;15.40;14.00;;;;;24.19;59.99;98298.47;6131834;28;97150;-64
2021/07/26 01:40:21;;;;;;;;;15.00;14.00;;;;;24.29;60.04;98265.84;6140810;28;96420;-64
2021/07/26 01:43:26;;;;;;;;;17.00;15.00;;;;;24.36;60.09;98246.09;6127821;28;97506;-64
2021/07/26 01:46:41;;;;;;;;;15.00;13.40;;;;;24.44;59.64;98228.72;6106678;28;99630;-64
2021/07/26 01:49:59;;;;;;;;;16.40;15.40;;;;;24.38;59.85;98232.81;6128680;28;97529;-63
2021/07/26 01:53:04;;;;;;;;;18.00;15.60;;;;;23.96;60.88;98215.97;6100558;28;96780;-63
2021/07/26 01:56:08;;;;;;;;;13.25;12.00;;;;;23.89;61.04;98193.66;6137098;28;97445;-63
2021/07/26 01:59:11;;;;;;;;;11.00;11.00;;;;;23.92;60.71;98187.47;6140578;28;96480;-63
2021/07/26 02:02:15;;;;;;;;;13.00;12.00;;;;;23.85;60.67;98209.16;6127385;28;96564;-64
2021/07/26 02:05:18;;;;;;;;;12.00;12.00;;;;;23.85;60.74;98220.19;6140504;28;97535;-64
2021/07/26 02:08:23;;;;;;;;;12.00;11.00;;;;;23.83;60.67;98227.97;6129534;28;97469;-64
2021/07/26 02:11:26;;;;;;;;;12.00;11.00;;;;;23.92;60.66;98225.22;6140337;28;98118;-63
2021/07/26 02:14:29;;;;;;;;;12.00;11.40;;;;;23.89;60.52;98229.44;6138728;28;97426;-64
2021/07/26 02:17:33;;;;;;;;;12.00;11.00;;;;;23.77;61.40;98226.50;6134108;28;97060;-64
2021/07/26 02:20:36;;;;;;;;;10.00;9.00;;;;;23.72;61.32;98224.72;6135636;28;98035;-63
2021/07/26 02:23:41;;;;;;;;;11.00;10.00;;;;;23.59;61.44;98231.19;6126063;28;97523;-63
2021/07/26 02:26:44;;;;;;;;;10.00;10.00;;;;;23.68;61.69;98233.94;6134771;28;96669;-64
2021/07/26 02:29:47;;;;;;;;;9.33;9.00;;;;;23.57;61.54;98218.88;6127689;28;97235;-64
2021/07/26 02:32:51;;;;;;;;;10.20;9.80;;;;;23.75;61.20;98228.75;6139694;28;97087;-63
2021/07/26 02:35:54;;;;;;;;;10.00;9.00;;;;;23.82;61.26;98229.09;6139783;28;96587;-63
2021/07/26 02:38:58;;;;;;;;;11.00;11.00;;;;;24.00;60.82;98238.16;6133187;28;96904;-64
2021/07/26 02:42:02;;;;;;;;;10.00;10.00;;;;;24.10;60.29;98244.13;6133205;28;97603;-63
2021/07/26 02:45:07;;;;;;;;;10.00;9.00;;;;;24.25;60.06;98248.38;6129112;28;97944;-64
2021/07/26 02:48:10;;;;;;;;;11.00;10.00;;;;;24.38;60.00;98279.63;6122941;28;98455;-63
2021/07/26 02:51:14;;;;;;;;;12.00;11.00;;;;;24.49;59.48;98276.19;6137318;28;96460;-63
2021/07/26 02:54:19;;;;;;;;;10.00;9.00;;;;;24.58;59.39;98281.72;6138838;28;97255;-64
2021/07/26 02:57:22;;;;;;;;;10.00;9.00;;;;;24.63;59.12;98284.25;6129760;28;97427;-64
2021/07/26 03:00:25;;;;;;;;;11.00;9.00;;;;;24.65;58.53;98290.28;6133467;28;96476;-64
2021/07/26 03:03:29;;;;;;;;;9.00;9.00;;;;;24.68;58.93;98292.38;6138660;28;96593;-64
2021/07/26 03:06:32;;;;;;;;;9.50;9.00;;;;;24.71;58.51;98291.72;6139897;28;97050;-64
2021/07/26 03:09:38;;;;;;;;;9.60;8.00;;;;;24.74;58.12;98293.81;6137194;28;97221;-64
2021/07/26 03:12:42;;;;;;;;;8.60;8.00;;;;;24.59;58.22;98308.94;6136727;28;97522;-63
2021/07/26 03:15:45;;;;;;;;;8.00;7.50;;;;;24.58;58.25;98307.28;6126207;28;98303;-64
2021/07/26 03:18:48;;;;;;;;;8.00;8.00;;;;;24.64;58.49;98293.34;6136825;28;96497;-64
2021/07/26 03:22:40;;;;;;;;;10.00;9.00;;;;;24.67;58.21;98290.78;6138775;28;96349;-64
2021/07/26 03:25:45;;;;;;;;;8.60;7.60;;;;;24.69;57.87;98279.38;6128232;28;97547;-64
2021/07/26 03:28:48;;;;;;;;;7.00;6.75;;;;;24.70;58.15;98278.25;6139438;28;97471;-64
2021/07/26 03:31:52;;;;;;;;;7.00;7.00;;;;;24.75;57.82;98289.13;6129983;28;97297;-64
2021/07/26 03:34:55;;;;;;;;;7.40;7.00;;;;;24.76;57.63;98280.53;6138830;28;96615;-62
2021/07/26 03:37:59;;;;;;;;;7.00;7.00;;;;;24.76;57.77;98285.22;6139409;28;97398;-64
2021/07/26 03:41:04;;;;;;;;;7.00;7.00;;;;;24.69;57.33;98282.16;6139299;28;97412;-64
2021/07/26 03:44:07;;;;;;;;;6.00;6.00;;;;;24.48;57.69;98274.56;6137503;28;96631;-63
2021/07/26 03:47:10;;;;;;;;;7.00;6.00;;;;;24.28;57.87;98277.22;6121147;28;97525;-63
2021/07/26 03:50:15;;;;;;;;;5.00;4.60;;;;;23.94;58.04;98270.56;6138869;28;97460;-63
2021/07/26 03:53:18;;;;;;;;;4.00;4.00;;;;;23.83;58.74;98279.47;6131232;28;97481;-63
2021/07/26 03:56:23;;;;;;;;;5.00;4.00;;;;;24.06;58.40;98287.25;6137776;28;97161;-61
2021/07/26 03:59:26;;;;;;;;;4.40;4.00;;;;;24.17;58.13;98288.56;6120233;28;96738;-64
2021/07/26 04:02:30;;;;;;;;;6.00;5.60;;;;;24.31;58.35;98282.06;6124504;28;96748;-64
2021/07/26 04:05:36;;;;;;;;;5.00;5.00;;;;;24.43;58.30;98279.47;6137681;28;97414;-65
2021/07/26 04:08:42;;;;;;;;;7.00;6.00;;;;;24.53;58.29;98281.88;6120780;28;97257;-64
2021/07/26 04:11:50;;;;;;;;;7.00;6.00;;;;;24.62;57.87;98284.63;6130096;28;96611;-63
2021/07/26 04:14:53;;;;;;;;;8.00;7.00;;;;;24.73;57.72;98289.44;6135096;28;97007;-63
2021/07/26 04:17:56;;;;;;;;;7.60;7.00;;;;;24.77;57.88;98284.91;6111041;28;96769;-63
2021/07/26 04:21:00;;;;;;;;;7.75;6.75;;;;;24.86;57.50;98285.69;6094528;28;96776;-64
2021/07/26 04:24:04;;;;;;;;;6.60;6.40;;;;;24.92;57.82;98281.63;6104796;28;97112;-64
2021/07/26 04:27:09;;;;;;;;;7.00;6.40;;;;;24.97;57.20;98295.22;6107516;28;97716;-63
2021/07/26 04:30:31;;;;;;;;;6.00;5.00;;;;;25.02;57.25;98302.53;6107917;28;96700;-64
2021/07/26 04:33:35;;;;;;;;;5.50;4.50;;;;;25.11;56.88;98297.78;6114347;28;97560;-63
2021/07/26 04:36:38;;;;;;;;;6.00;5.00;;;;;25.21;56.83;98294.66;6109952;28;97474;-64
2021/07/26 04:39:42;;;;;;;;;5.00;5.00;;;;;25.27;56.33;98303.53;6116972;28;97428;-63
2021/07/26 04:42:47;;;;;;;;;6.00;5.00;;;;;25.32;55.34;98306.91;6116947;28;96540;-62
2021/07/26 04:45:50;;;;;;;;;6.00;6.00;;;;;25.43;55.63;98304.59;6098907;28;98147;-63
2021/07/26 04:48:55;;;;;;;;;4.25;4.00;;;;;25.46;55.91;98320.50;6103359;28;96682;-64
2021/07/26 04:51:58;;;;;;;;;5.00;5.00;;;;;25.47;55.63;98322.09;6112875;28;97214;-63
2021/07/26 04:55:04;;;;;;;;;6.00;5.00;;;;;25.46;55.81;98323.28;6111501;28;97883;-63
2021/07/26 04:58:27;;;;;;;;;7.00;7.00;;;;;25.51;56.12;98319.50;6118424;28;97154;-64
2021/07/26 05:01:31;;;;;;;;;6.00;6.00;;;;;25.58;56.51;98323.38;6107803;28;97598;-64
2021/07/26 05:04:34;;;;;;;;;6.00;6.00;;;;;25.59;56.40;98327.78;6119193;28;97386;-64
2021/07/26 05:07:37;;;;;;;;;6.00;5.60;;;;;25.60;56.20;98323.88;6114952;28;97476;-63
2021/07/26 05:10:45;;;;;;;;;6.00;6.00;;;;;25.65;56.50;98329.19;6103823;28;97601;-64
2021/07/26 05:13:51;;;;;;;;;6.00;6.00;;;;;25.60;55.92;98323.88;6104198;28;96659;-64
2021/07/26 05:16:55;;;;;;;;;7.00;6.60;;;;;25.56;56.27;98320.13;6104102;28;96706;-63
2021/07/26 05:19:58;;;;;;;;;6.00;5.00;;;;;25.59;55.94;98330.53;6137024;28;97045;-63
2021/07/26 05:23:02;;;;;;;;;7.40;7.00;;;;;25.66;55.86;98330.78;6131155;28;96762;-63
2021/07/26 05:26:08;;;;;;;;;8.75;8.00;;;;;25.62;55.51;98337.31;6135402;28;96761;-63
2021/07/26 05:29:13;;;;;;;;;6.00;6.00;;;;;25.62;55.42;98340.09;6123214;28;97455;-63
2021/07/26 05:32:16;;;;;;;;;6.00;5.40;;;;;25.75;55.33;98348.16;6116321;28;96961;-63
2021/07/26 05:35:20;;;;;;;;;5.00;5.00;;;;;25.90;55.49;98346.75;6141655;28;97513;-63
2021/07/26 05:38:23;;;;;;;;;6.50;6.00;;;;;25.99;54.05;98354.97;6140766;28;97539;-64
2021/07/26 05:41:26;;;;;;;;;5.00;5.00;;;;;26.14;54.82;98359.91;6120048;28;96807;-64
2021/07/26 05:44:31;;;;;;;;;5.00;5.00;;;;;26.28;54.15;98358.53;6136017;28;96806;-63
2021/07/26 05:47:34;;;;;;;;;4.75;4.75;;;;;26.43;54.05;98350.75;6134250;28;96664;-63
2021/07/26 05:50:38;;;;;;;;;7.00;5.00;;;;;26.61;53.24;98357.75;6135066;28;96730;-63
2021/07/26 05:53:41;;;;;;;;;5.00;5.00;;;;;26.66;52.36;98361.13;6113778;28;97125;-63
2021/07/26 05:56:47;;;;;;;;;7.00;5.00;;;;;26.68;52.13;98353.28;6141471;28;96657;-63
2021/07/26 05:59:56;;;;;;;;;5.25;5.00;;;;;26.82;52.48;98371.53;6112346;28;97677;-62
2021/07/26 06:03:00;;;;;;;;;7.00;7.00;;;;;26.85;51.77;98377.19;6110141;28;96672;-64
2021/07/26 06:06:04;;;;;;;;;4.00;4.00;;;;;26.79;52.30;98380.50;6130907;28;97476;-64
2021/07/26 06:09:08;;;;;;;;;5.00;5.00;;;;;26.83;52.46;98384.22;6128597;28;96703;-63
2021/07/26 06:12:11;;;;;;;;;4.00;3.00;;;;;26.92;51.92;98383.03;6126442;28;96526;-64
2021/07/26 06:15:16;;;;;;;;;5.00;4.00;;;;;27.11;52.04;98388.84;6121709;28;96693;-63
2021/07/26 06:18:19;;;;;;;;;6.00;5.00;;;;;27.12;51.59;98384.91;6117309;28;97475;-63
2021/07/26 06:21:22;;;;;;;;;5.00;5.00;;;;;27.11;51.46;98394.38;6123346;28;97869;-63
2021/07/26 06:24:26;;;;;;;;;7.50;6.50;;;;;27.21;51.54;98401.44;6138710;28;97256;-63
2021/07/26 06:27:29;;;;;;;;;7.75;7.00;;;;;27.27;51.06;98407.56;6123872;28;97425;-64
2021/07/26 06:30:34;;;;;;;;;6.00;6.00;;;;;27.24;50.92;98405.47;6126329;28;97404;-63
2021/07/26 06:33:38;;;;;;;;;6.00;6.00;;;;;27.27;50.83;98411.09;6126852;28;97441;-64
2021/07/26 06:36:41;;;;;;;;;5.75;5.25;;;;;27.34;51.61;98410.56;6131589;28;96890;-63
2021/07/26 06:39:44;;;;;;;;;7.00;6.00;;;;;27.45;51.80;98406.19;6137131;28;96611;-64
2021/07/26 06:42:48;;;;;;;;;8.00;7.75;;;;;27.53;50.93;98421.91;6138919;28;97791;-63
2021/07/26 06:45:53;;;;;;;;;6.00;5.50;;;;;27.73;50.78;98417.44;6135619;28;97183;-62
2021/07/26 06:48:56;;;;;;;;;6.00;6.00;;;;;27.82;50.29;98415.34;6132286;28;97475;-62
2021/07/26 06:51:59;;;;;;;;;7.00;6.00;;;;;27.91;50.32;98424.34;6113973;28;97815;-62
2021/07/26 06:55:03;;;;;;;;;7.00;6.25;;;;;27.96;49.92;98426.91;6126446;28;96749;-61
2021/07/26 06:58:06;;;;;;;;;8.00;7.00;;;;;28.13;49.21;98428.66;6126503;28;98009;-62
2021/07/26 07:01:12;;;;;;;;;7.00;6.25;;;;;28.44;48.53;98434.41;6129187;28;97468;-62
2021/07/26 07:04:16;;;;;;;;;8.00;8.00;;;;;28.62;47.91;98440.47;6105726;28;97997;-62
2021/07/26 07:07:19;;;;;;;;;7.00;7.00;;;;;28.80;48.02;98439.84;6134837;28;97475;-62
2021/07/26 07:10:22;;;;;;;;;9.00;8.00;;;;;29.04;47.35;98438.13;6136860;28;97517;-62
2021/07/26 07:13:28;;;;;;;;;7.00;7.00;;;;;29.46;47.13;98449.66;6115534;28;96610;-62
2021/07/26 07:16:33;;;;;;;;;8.00;7.00;;;;;29.61;45.54;98448.84;6137117;28;98088;-61
2021/07/26 07:19:38;;;;;;;;;8.40;8.40;;;;;29.86;45.42;98444.69;6117984;28;96497;-62
2021/07/26 07:22:41;;;;;;;;;8.00;8.00;;;;;30.03;45.31;98455.50;6130340;28;98148;-62
2021/07/26 07:25:46;;;;;;;;;7.00;7.00;;;;;30.32;44.56;98456.97;6140132;28;98046;-62
2021/07/26 07:28:49;;;;;;;;;8.00;7.00;;;;;30.29;43.60;98449.38;6129991;28;96649;-63
2021/07/26 07:31:54;;;;;;;;;8.80;8.20;;;;;30.42;43.33;98447.25;6139297;28;97639;-62
2021/07/26 07:34:58;;;;;;;;;9.60;8.00;;;;;30.60;43.31;98458.81;6139342;28;97560;-61
2021/07/26 07:38:01;;;;;;;;;8.20;7.80;;;;;30.66;42.32;98447.03;6139455;28;96876;-62
2021/07/26 07:41:05;;;;;;;;;9.25;8.00;;;;;30.81;42.37;98448.13;6125862;28;97430;-62
2021/07/26 07:44:12;;;;;;;;;7.00;7.00;;;;;30.99;41.59;98454.88;6108392;28;97306;-62
2021/07/26 07:47:16;;;;;;;;;9.60;9.00;;;;;31.20;41.62;98446.16;6130644;28;96721;-62
2021/07/26 07:50:20;;;;;;;;;10.60;9.60;;;;;31.46;40.46;98453.84;6132490;28;97607;-62
2021/07/26 07:53:24;;;;;;;;;9.00;8.00;;;;;31.56;40.47;98458.78;6134526;28;97538;-61
2021/07/26 07:56:28;;;;;;;;;8.80;8.00;;;;;31.42;40.13;98462.13;6119662;28;97867;-62
2021/07/26 07:59:31;;;;;;;;;12.60;11.00;;;;;31.48;40.66;98465.41;6124972;28;97528;-62
2021/07/26 08:02:36;;;;;;;;;9.00;8.00;;;;;31.48;40.56;98468.19;6137876;28;97440;-62
2021/07/26 08:05:40;;;;;;;;;11.00;10.50;;;;;31.46;40.42;98476.94;6134082;28;97321;-61
2021/07/26 08:08:43;;;;;;;;;9.25;9.00;;;;;31.41;40.39;98468.88;6137699;28;97358;-62
2021/07/26 08:11:46;;;;;;;;;11.00;10.00;;;;;31.45;40.53;98475.31;6139705;28;96708;-62
2021/07/26 08:14:50;;;;;;;;;8.00;8.00;;;;;31.36;40.11;98478.34;6125250;28;96797;-61
2021/07/26 08:17:54;;;;;;;;;8.00;8.00;;;;;31.38;40.54;98484.34;6144273;28;98095;-62
2021/07/26 08:20:58;;;;;;;;;9.00;8.00;;;;;31.47;40.56;98474.94;6145545;28;96881;-62
2021/07/26 08:24:02;;;;;;;;;11.00;10.00;;;;;31.36;40.27;98485.88;6114996;28;97343;-62
2021/07/26 08:27:09;;;;;;;;;9.67;9.00;;;;;31.30;40.97;98477.03;6145202;28;97203;-62
2021/07/26 08:30:13;;;;;;;;;9.00;8.60;;;;;31.33;41.00;98470.69;6144813;28;97436;-62
2021/07/26 08:33:18;;;;;;;;;9.40;9.00;;;;;31.40;40.63;98478.41;6145462;28;97453;-62
2021/07/26 08:36:21;;;;;;;;;9.20;8.20;;;;;31.40;39.77;98484.78;6120428;28;96788;-61
2021/07/26 08:39:24;;;;;;;;;8.00;8.00;;;;;31.26;39.47;98470.59;6134941;28;96700;-62
2021/07/26 08:42:29;;;;;;;;;8.00;7.60;;;;;31.40;39.57;98472.81;6133619;28;96992;-62
2021/07/26 08:45:32;;;;;;;;;8.75;8.00;;;;;31.69;39.91;98471.41;6144825;28;96589;-62
2021/07/26 08:48:37;;;;;;;;;8.40;8.40;;;;;31.87;38.97;98477.28;6141882;28;97024;-62
2021/07/26 08:51:43;;;;;;;;;7.00;7.00;;;;;32.05;38.33;98475.59;6137462;28;96815;-62
2021/07/26 08:54:50;;;;;;;;;8.00;8.00;;;;;32.12;38.31;98481.31;6140902;28;97766;-61
2021/07/26 08:57:53;;;;;;;;;8.25;7.75;;;;;32.22;38.31;98481.50;6129127;28;96575;-62
2021/07/26 09:00:57;;;;;;;;;8.60;7.60;;;;;32.13;37.50;98482.94;6134266;28;97476;-62
2021/07/26 09:04:02;;;;;;;;;8.20;8.20;;;;;32.13;39.07;98480.94;6139937;28;96424;-62
2021/07/26 09:07:06;;;;;;;;;6.75;6.00;;;;;32.14;38.91;98488.16;6128947;28;96566;-62
2021/07/26 09:10:14;;;;;;;;;7.40;7.00;;;;;32.40;39.31;98484.53;6141184;28;96709;-61
2021/07/26 09:13:33;;;;;;;;;6.00;6.00;;;;;32.71;38.52;98494.59;6132373;28;96980;-62
2021/07/26 09:16:37;;;;;;;;;8.80;8.00;;;;;32.78;37.94;98485.53;6131473;28;97286;-62
2021/07/26 09:19:59;;;;;;;;;8.00;8.00;;;;;32.94;37.95;98472.19;6139454;28;96823;-62
2021/07/26 09:23:12;;;;;;;;;8.00;7.00;;;;;33.13;36.50;98483.19;6123318;28;97525;-61
2021/07/26 09:26:28;;;;;;;;;6.60;6.60;;;;;33.09;36.09;98493.50;6140886;28;97433;-62
2021/07/26 09:29:32;;;;;;;;;6.00;6.00;;;;;33.11;36.62;98485.56;6138200;28;96823;-62
2021/07/26 09:32:38;;;;;;;;;6.00;6.00;;;;;33.03;35.45;98473.50;6141357;28;97107;-62
2021/07/26 09:35:43;;;;;;;;;6.00;6.00;;;;;33.24;36.37;98489.72;6123062;28;96974;-62
2021/07/26 09:38:56;;;;;;;;;6.50;6.00;;;;;33.45;37.25;98484.38;6138712;28;97425;-62
2021/07/26 09:42:00;;;;;;;;;8.00;7.00;;;;;33.54;37.91;98481.28;6141170;28;96669;-62
2021/07/26 09:45:18;;;;;;;;;7.00;6.40;;;;;33.68;35.99;98483.44;6118398;28;98716;-62
2021/07/26 09:48:25;;;;;;;;;7.00;6.00;;;;;33.53;36.72;98484.47;6109931;28;96738;-63
2021/07/26 09:51:30;;;;;;;;;6.40;6.00;;;;;33.76;36.12;98480.34;6127051;28;97054;-63
2021/07/26 09:54:44;;;;;;;;;6.00;6.00;;;;;33.86;35.45;98476.84;6132045;28;96711;-63
2021/07/26 09:57:47;;;;;;;;;8.00;7.00;;;;;34.02;33.93;98498.13;6111269;28;96701;-63
2021/07/26 10:00:50;;;;;;;;;9.00;6.60;;;;;33.89;34.42;98495.63;6125880;28;97015;-63
2021/07/26 10:03:54;;;;;;;;;8.00;7.00;;;;;33.81;34.70;98491.19;6087961;28;97779;-63
2021/07/26 10:06:59;;;;;;;;;8.00;7.00;;;;;33.97;35.23;98501.28;6125726;28;97088;-63
2021/07/26 10:10:02;;;;;;;;;6.00;6.00;;;;;34.07;35.24;98497.78;6120551;28;96656;-63
2021/07/26 10:13:08;;;;;;;;;8.25;8.00;;;;;34.31;34.02;98509.19;6133959;28;97388;-62
2021/07/26 10:16:14;;;;;;;;;7.20;6.00;;;;;34.19;34.05;98515.13;6121185;28;97360;-63
2021/07/26 10:19:17;;;;;;;;;7.00;7.00;;;;;33.92;34.47;98505.25;6121459;28;97506;-63
2021/07/26 10:22:26;;;;;;;;;7.00;6.00;;;;;34.01;34.23;98502.13;6132126;28;97256;-63
2021/07/26 10:25:41;;;;;;;;;6.00;5.00;;;;;34.08;34.29;98493.78;6125750;28;96802;-63
2021/07/26 10:28:52;;;;;;;;;6.00;6.00;;;;;34.31;33.78;98488.81;6128014;28;96788;-63
2021/07/26 10:31:55;;;;;;;;;6.00;5.60;;;;;34.51;33.42;98492.13;6129684;28;97443;-63
2021/07/26 10:35:00;;;;;;;;;6.60;6.00;;;;;34.78;33.98;98504.75;6137911;28;96496;-63
2021/07/26 10:38:06;;;;;;;;;6.00;6.00;;;;;34.59;33.64;98491.00;6137565;28;96955;-63
2021/07/26 10:41:10;;;;;;;;;6.50;5.50;;;;;34.78;33.28;98490.75;6134644;28;97685;-63
2021/07/26 10:44:43;;;;;;;;;7.25;7.25;;;;;34.51;33.19;98490.16;6137438;28;97577;-63
2021/07/26 10:48:21;;;;;;;;;6.00;6.00;;;;;34.53;33.27;98489.75;6135731;28;97496;-63
2021/07/26 10:51:44;;;;;;;;;6.00;5.00;;;;;34.45;33.39;98500.13;6104235;28;99449;-63
2021/07/26 10:54:50;;;;;;;;;5.40;5.00;;;;;34.72;32.31;98501.53;6135421;28;96544;-63
2021/07/26 10:57:55;;;;;;;;;7.00;6.00;;;;;35.05;32.98;98499.69;6103846;28;96727;-63
2021/07/26 11:01:42;;;;;;;;;5.50;5.50;;;;;35.24;31.27;98493.78;6105056;28;97736;-63
2021/07/26 11:04:45;;;;;;;;;6.00;6.00;;;;;35.22;30.87;98499.00;6118426;28;96580;-64
2021/07/26 11:07:49;;;;;;;;;6.75;6.50;;;;;35.25;30.96;98484.19;6123806;28;97490;-63
2021/07/26 11:10:57;;;;;;;;;7.00;6.00;;;;;35.32;32.34;98481.41;6131526;28;96634;-63
2021/07/26 11:14:11;;;;;;;;;7.00;7.00;;;;;35.47;32.67;98480.25;6115455;28;96647;-62
2021/07/26 11:17:15;;;;;;;;;7.00;7.00;;;;;35.79;31.65;98479.53;6130405;28;97558;-61
2021/07/26 11:21:13;;;;;;;;;6.60;6.00;;;;;35.89;32.48;98479.53;6129022;28;96669;-61
2021/07/26 11:24:49;;;;;;;;;6.00;6.00;;;;;36.05;31.42;98479.94;6139122;28;97851;-61
2021/07/26 11:27:55;;;;;;;;;6.80;6.80;;;;;36.17;31.09;98477.94;6138557;28;96498;-62
2021/07/26 11:30:59;;;;;;;;;7.00;7.00;;;;;36.22;30.61;98469.94;6137731;28;97537;-63
2021/07/26 11:34:10;;;;;;;;;8.00;7.00;;;;;36.31;30.55;98469.53;6126434;28;96768;-62
2021/07/26 11:37:15;;;;;;;;;7.00;7.00;;;;;36.31;30.08;98478.75;6136667;28;96881;-63
2021/07/26 11:40:19;;;;;;;;;9.00;8.75;;;;;36.42;29.47;98470.31;6116295;28;98605;-62
2021/07/26 11:43:39;;;;;;;;;7.00;7.00;;;;;36.30;29.63;98465.13;6138231;28;97591;-62
2021/07/26 11:46:47;;;;;;;;;8.00;8.00;;;;;36.30;29.34;98468.75;6139067;28;97955;-61
2021/07/26 11:49:51;;;;;;;;;9.80;9.00;;;;;36.02;29.86;98474.31;6138186;28;97907;-61
2021/07/26 11:52:56;;;;;;;;;7.00;7.00;;;;;35.99;29.98;98478.75;6138802;28;96821;-61
2021/07/26 11:55:59;;;;;;;;;8.25;7.75;;;;;36.00;30.55;98468.31;6139020;28;96726;-61
2021/07/26 11:59:19;;;;;;;;;8.50;8.00;;;;;35.97;30.01;98481.13;6139065;28;96541;-61
2021/07/26 12:02:28;;;;;;;;;8.00;8.00;;;;;35.84;30.72;98476.31;6139521;28;97108;-62
2021/07/26 12:05:35;;;;;;;;;8.00;8.00;;;;;35.83;30.10;98466.28;6138741;28;96480;-61
2021/07/26 12:08:39;;;;;;;;;7.00;7.00;;;;;36.09;31.44;98474.34;6139798;28;96548;-62
2021/07/26 12:11:42;;;;;;;;;8.00;8.00;;;;;36.22;29.57;98469.13;6119856;28;97094;-62
2021/07/26 12:14:47;;;;;;;;;9.40;8.00;;;;;36.35;29.81;98471.16;6119681;28;97947;-61
2021/07/26 12:18:02;;;;;;;;;8.00;8.00;;;;;36.33;29.42;98462.31;6137354;28;96542;-61
2021/07/26 12:21:07;;;;;;;;;8.60;8.00;;;;;36.54;30.67;98471.91;6137698;28;98180;-61
2021/07/26 12:24:10;;;;;;;;;9.00;8.00;;;;;36.54;29.12;98471.91;6137930;28;96695;-62
2021/07/26 12:27:26;;;;;;;;;10.00;8.00;;;;;36.59;29.33;98463.06;6124600;28;97498;-62
2021/07/26 12:30:39;;;;;;;;;7.75;7.75;;;;;36.55;29.19;98462.28;6096347;28;96922;-63
2021/07/26 12:33:43;;;;;;;;;7.00;7.00;;;;;36.63;29.81;98464.69;6135952;28;96534;-62
2021/07/26 12:36:47;;;;;;;;;9.50;9.00;;;;;36.76;29.56;98459.44;6134087;28;97156;-62
2021/07/26 12:39:51;;;;;;;;;9.00;8.80;;;;;36.78;29.25;98465.44;6135757;28;96958;-63
2021/07/26 12:43:04;;;;;;;;;8.00;8.00;;;;;36.89;29.45;98464.22;6134897;28;96673;-63
2021/07/26 12:46:09;;;;;;;;;9.00;8.00;;;;;36.91;29.43;98463.78;6134210;28;97353;-62
2021/07/26 12:49:13;;;;;;;;;8.60;7.60;;;;;36.93;29.80;98469.81;6135624;28;96780;-63
2021/07/26 12:52:16;;;;;;;;;8.20;7.00;;;;;37.01;28.91;98465.75;6117901;28;98475;-62
2021/07/26 12:55:20;;;;;;;;;8.00;8.00;;;;;36.92;28.51;98461.78;6139545;28;96804;-62
2021/07/26 12:58:24;;;;;;;;;9.50;8.00;;;;;36.93;28.68;98458.56;6139223;28;97652;-63
2021/07/26 13:01:29;;;;;;;;;8.00;8.00;;;;;37.07;28.79;98444.50;6120508;28;98574;-62
2021/07/26 13:04:33;;;;;;;;;8.00;6.60;;;;;37.19;28.28;98449.63;6128324;28;96728;-62
2021/07/26 13:07:36;;;;;;;;;7.50;7.00;;;;;37.28;28.44;98458.44;6122123;28;96734;-62
2021/07/26 13:10:40;;;;;;;;;7.00;7.00;;;;;37.27;28.26;98447.59;6125282;28;97451;-63
2021/07/26 13:13:44;;;;;;;;;9.00;8.40;;;;;37.26;28.44;98451.63;6131185;28;97519;-63
2021/07/26 13:16:49;;;;;;;;;7.40;7.40;;;;;37.17;28.56;98448.47;6132352;28;96834;-63
2021/07/26 13:19:54;;;;;;;;;8.50;7.50;;;;;37.04;27.64;98444.50;6133541;28;96482;-62
2021/07/26 13:22:57;;;;;;;;;8.00;8.00;;;;;37.09;27.80;98446.91;6134401;28;97584;-62
2021/07/26 13:26:01;;;;;;;;;7.80;7.00;;;;;37.09;27.89;98447.72;6139278;28;97496;-62
2021/07/26 13:29:05;;;;;;;;;9.20;8.00;;;;;37.29;28.35;98450.78;6141136;28;97885;-62
2021/07/26 13:32:30;;;;;;;;;10.00;9.00;;;;;37.19;27.82;98446.81;6139576;28;97175;-62
2021/07/26 13:35:35;;;;;;;;;8.00;8.00;;;;;37.16;28.44;98435.59;6114893;28;96537;-62
2021/07/26 13:38:38;;;;;;;;;9.00;9.00;;;;;37.12;27.38;98444.06;6136142;28;97470;-62
2021/07/26 13:41:41;;;;;;;;;7.50;7.50;;;;;37.31;27.94;98452.00;6133907;28;98308;-61
2021/07/26 13:44:45;;;;;;;;;8.00;8.00;;;;;37.43;27.52;98449.94;6113560;28;99188;-62
2021/07/26 13:47:50;;;;;;;;;7.80;7.80;;;;;37.44;28.32;98449.50;6140673;28;97479;-62
2021/07/26 13:50:53;;;;;;;;;9.80;8.80;;;;;37.48;28.18;98444.69;6119897;28;97462;-62
2021/07/26 13:53:57;;;;;;;;;10.00;10.00;;;;;37.54;27.68;98439.41;6129885;28;97541;-62
2021/07/26 13:57:00;;;;;;;;;8.40;7.40;;;;;37.52;28.11;98451.06;6111689;28;97081;-63
2021/07/26 14:00:04;;;;;;;;;7.60;7.00;;;;;37.41;27.88;98443.91;6122622;28;96436;-64
2021/07/26 14:03:15;;;;;;;;;8.00;7.80;;;;;37.29;28.61;98436.72;6139570;28;96762;-62
2021/07/26 14:06:19;;;;;;;;;8.50;8.00;;;;;37.10;28.22;98438.03;6138551;28;97720;-62
2021/07/26 14:09:22;;;;;;;;;8.00;8.00;;;;;37.15;27.82;98437.63;6136327;28;97692;-61
2021/07/26 14:12:26;;;;;;;;;9.00;8.60;;;;;37.03;27.92;98437.25;6137033;28;96714;-61
2021/07/26 14:15:30;;;;;;;;;9.00;9.00;;;;;36.84;27.98;98436.53;6138601;28;97476;-62
2021/07/26 14:18:38;;;;;;;;;9.60;9.00;;;;;36.72;28.68;98436.97;6138104;28;97549;-62
2021/07/26 14:21:41;;;;;;;;;9.50;9.00;;;;;36.69;28.98;98437.78;6137760;28;97540;-61
2021/07/26 14:24:45;;;;;;;;;8.00;7.00;;;;;36.66;28.66;98441.41;6136548;28;97308;-63
2021/07/26 14:27:48;;;;;;;;;9.60;8.60;;;;;36.55;29.06;98437.00;6138802;28;97452;-62
2021/07/26 14:30:59;;;;;;;;;8.80;7.00;;;;;36.51;29.74;98427.81;6137927;28;97504;-63